Time;durP1;ratioP1;P1;durP2;ratioP2;P2;SDS_P1;SDS_P2;PMS_P1;PMS_P2;Temp;Humidity;BMP_temperature;BMP_pressure;BME280_temperature;BME280_humidity;BME280_pressure;Samples;Min_cycle;Max_cycle;Signal;HPM_P1;HPM_P2
2024/02/10 00:00:19;;;;;;;4.53;1.67;;;;;;;-141.50;100.00;63355.56;5086234;28;20047;-81
2024/02/10 00:02:48;;;;;;;3.05;1.27;;;;;;;-141.50;100.00;63355.56;5097341;28;20053;-82
2024/02/10 00:05:15;;;;;;;2.35;1.52;;;;;;;-141.50;100.00;63355.56;5107059;28;20052;-82
2024/02/10 00:07:51;;;;;;;4.72;1.63;;;;;;;-141.50;100.00;63355.56;5089888;28;20050;-81
2024/02/10 00:10:24;;;;;;;4.90;1.50;;;;;;;-141.50;100.00;63355.56;5064739;28;20051;-81
2024/02/10 00:12:51;;;;;;;3.50;1.50;;;;;;;-141.50;100.00;63355.56;5099487;28;20044;-81
2024/02/10 00:15:20;;;;;;;3.03;1.48;;;;;;;-141.50;100.00;63355.56;5104360;28;20069;-82
2024/02/10 00:17:48;;;;;;;2.65;1.58;;;;;;;-141.50;100.00;63355.56;5087664;28;20509;-81
2024/02/10 00:20:15;;;;;;;5.05;1.70;;;;;;;-141.50;100.00;63355.56;5066007;28;20064;-81
2024/02/10 00:22:43;;;;;;;4.07;1.63;;;;;;;-141.50;100.00;63355.56;5109509;28;20471;-81
2024/02/10 00:25:10;;;;;;;3.75;2.00;;;;;;;-141.50;100.00;63355.56;5092451;28;20082;-81
2024/02/10 00:27:39;;;;;;;3.72;1.80;;;;;;;-141.50;100.00;63355.56;5116528;28;20055;-82
2024/02/10 00:30:07;;;;;;;3.15;1.95;;;;;;;-141.50;100.00;63355.56;5091380;28;20678;-81
2024/02/10 00:32:36;;;;;;;4.28;2.08;;;;;;;-141.50;100.00;63355.56;5115742;28;20059;-81
2024/02/10 00:35:04;;;;;;;5.53;2.10;;;;;;;-141.50;100.00;63355.56;5114295;28;20063;-81
2024/02/10 00:37:31;;;;;;;7.53;2.20;;;;;;;-141.50;100.00;63355.56;5116961;28;20054;-81
2024/02/10 00:40:00;;;;;;;5.57;2.17;;;;;;;-141.50;100.00;63355.56;5119938;28;20043;-81
2024/02/10 00:42:28;;;;;;;4.28;2.03;;;;;;;-141.50;100.00;63355.56;5089904;28;20052;-81
2024/02/10 00:45:07;;;;;;;5.43;2.15;;;;;;;-141.50;100.00;63355.56;5089330;28;20044;-81
2024/02/10 00:47:35;;;;;;;3.72;2.10;;;;;;;-141.50;100.00;63355.56;5110460;28;20513;-80
2024/02/10 00:50:03;;;;;;;5.53;1.83;;;;;;;-141.50;100.00;63355.56;5090599;28;20147;-82
2024/02/10 00:52:30;;;;;;;7.50;2.25;;;;;;;-141.50;100.00;63355.56;5110181;28;20142;-82
2024/02/10 00:54:57;;;;;;;4.05;2.05;;;;;;;-141.50;100.00;63355.56;5106352;28;20054;-82
2024/02/10 00:57:23;;;;;;;4.57;2.08;;;;;;;-141.50;100.00;63355.56;5095828;28;20048;-81
2024/02/10 00:59:50;;;;;;;3.08;1.80;;;;;;;-141.50;100.00;63355.56;5084274;28;20433;-81
2024/02/10 01:02:17;;;;;;;5.40;2.17;;;;;;;-141.50;100.00;63355.56;5088574;28;20056;-81
2024/02/10 01:04:45;;;;;;;3.90;2.00;;;;;;;-141.50;100.00;63355.56;5086440;28;20421;-81
2024/02/10 01:07:14;;;;;;;5.60;2.20;;;;;;;-141.50;100.00;63355.56;5086066;28;20063;-80
2024/02/10 01:09:46;;;;;;;5.65;2.00;;;;;;;-141.50;100.00;63355.56;5066676;28;20131;-80
2024/02/10 01:12:16;;;;;;;3.83;2.10;;;;;;;-141.50;100.00;63355.56;5107726;28;20052;-81
2024/02/10 01:14:43;;;;;;;4.18;2.00;;;;;;;-141.50;100.00;63355.56;5089288;28;20096;-81
2024/02/10 01:17:10;;;;;;;3.55;2.03;;;;;;;-141.50;100.00;63355.56;5089623;28;20121;-81
2024/02/10 01:19:49;;;;;;;3.22;1.70;;;;;;;-141.50;100.00;63355.56;5107902;28;20579;-81
2024/02/10 01:22:22;;;;;;;4.07;1.92;;;;;;;-141.50;100.00;63355.56;5103367;28;20047;-81
2024/02/10 01:24:53;;;;;;;2.20;1.65;;;;;;;-141.50;100.00;63355.56;5109739;28;20043;-83
2024/02/10 01:27:27;;;;;;;2.88;1.73;;;;;;;-141.50;100.00;63355.56;5115230;28;20837;-83
2024/02/10 01:30:01;;;;;;;3.35;1.80;;;;;;;-141.50;100.00;63355.56;5096407;28;20047;-82
2024/02/10 01:32:27;;;;;;;5.28;1.80;;;;;;;-141.50;100.00;63355.56;5095356;28;20040;-83
2024/02/10 01:34:54;;;;;;;2.97;1.63;;;;;;;-141.50;100.00;63355.56;5110440;28;20039;-83
2024/02/10 01:37:23;;;;;;;4.68;1.67;;;;;;;-141.50;100.00;63355.56;5094736;28;20050;-81
2024/02/10 01:39:55;;;;;;;3.70;1.63;;;;;;;-141.50;100.00;63355.56;5113784;28;20139;-81
2024/02/10 01:42:38;;;;;;;3.83;1.88;;;;;;;-141.50;100.00;63355.56;5102865;28;20231;-81
2024/02/10 01:45:11;;;;;;;3.42;1.92;;;;;;;-141.50;100.00;63355.56;5111472;28;20055;-83
2024/02/10 01:47:43;;;;;;;3.38;1.73;;;;;;;-141.50;100.00;63355.56;5093656;28;20071;-82
2024/02/10 01:50:13;;;;;;;3.05;1.80;;;;;;;-141.50;100.00;63355.56;5110409;28;20051;-81
2024/02/10 01:52:40;;;;;;;4.47;1.80;;;;;;;-141.50;100.00;63355.56;5095254;28;20490;-81
2024/02/10 01:55:09;;;;;;;3.00;1.75;;;;;;;-141.50;100.00;63355.56;5096170;28;20569;-81
2024/02/10 01:57:38;;;;;;;4.00;2.00;;;;;;;-141.50;100.00;63355.56;5094748;28;20047;-80
2024/02/10 02:00:05;;;;;;;2.97;1.90;;;;;;;-141.50;100.00;63355.56;5086592;28;20062;-81
2024/02/10 02:02:33;;;;;;;3.35;1.83;;;;;;;-141.50;100.00;63355.56;5100099;28;20047;-81
2024/02/10 02:05:03;;;;;;;3.05;2.03;;;;;;;-141.50;100.00;63355.56;5085357;28;20074;-81
2024/02/10 02:07:30;;;;;;;2.90;1.67;;;;;;;-141.50;100.00;63355.56;5106847;28;20058;-82
2024/02/10 02:09:59;;;;;;;2.88;1.70;;;;;;;-141.50;100.00;63355.56;5102053;28;20044;-81
2024/02/10 02:12:31;;;;;;;3.78;1.73;;;;;;;-141.50;100.00;63355.56;5084100;28;20044;-81
2024/02/10 02:14:59;;;;;;;5.60;1.90;;;;;;;-141.50;100.00;63355.56;5082985;28;20044;-80
2024/02/10 02:17:26;;;;;;;4.72;1.70;;;;;;;-141.50;100.00;63355.56;5087718;28;20055;-80
2024/02/10 02:19:53;;;;;;;2.95;1.80;;;;;;;-141.50;100.00;63355.56;5092510;28;20055;-80
2024/02/10 02:22:19;;;;;;;3.22;2.05;;;;;;;-141.50;100.00;63355.56;5085791;28;20419;-80
2024/02/10 02:24:47;;;;;;;4.25;2.08;;;;;;;-141.50;100.00;63355.56;5091230;28;20513;-81
2024/02/10 02:27:15;;;;;;;7.50;2.28;;;;;;;-141.50;100.00;63355.56;5108273;28;20417;-80
2024/02/10 02:29:44;;;;;;;3.88;2.40;;;;;;;-141.50;100.00;63355.56;5089873;28;20071;-80
2024/02/10 02:32:11;;;;;;;4.75;2.28;;;;;;;-141.50;100.00;63355.56;5107905;28;20080;-80
2024/02/10 02:34:38;;;;;;;10.20;2.85;;;;;;;-141.50;100.00;63355.56;5105680;28;20051;-80
2024/02/10 02:37:06;;;;;;;6.10;2.47;;;;;;;-141.50;100.00;63355.56;5089536;28;20071;-80
2024/02/10 02:39:35;;;;;;;3.72;2.50;;;;;;;-141.50;100.00;63355.56;5075807;28;20459;-79
2024/02/10 02:42:05;;;;;;;5.07;2.38;;;;;;;-141.50;100.00;63355.56;5062630;28;20127;-82
2024/02/10 02:44:32;;;;;;;5.55;2.83;;;;;;;-141.50;100.00;63355.56;5105309;28;20066;-81
2024/02/10 02:47:04;;;;;;;5.47;2.78;;;;;;;-141.50;100.00;63355.56;5108202;28;20047;-79
2024/02/10 02:49:31;;;;;;;5.40;2.90;;;;;;;-141.50;100.00;63355.56;5109150;28;20059;-79
2024/02/10 02:51:58;;;;;;;6.88;3.08;;;;;;;-141.50;100.00;63355.56;5113366;28;20107;-81
2024/02/10 02:54:25;;;;;;;4.65;2.33;;;;;;;-141.50;100.00;63355.56;5094022;28;20055;-81
2024/02/10 02:56:54;;;;;;;5.75;3.00;;;;;;;-141.50;100.00;63355.56;5106549;28;20056;-80
2024/02/10 02:59:22;;;;;;;5.05;2.92;;;;;;;-141.50;100.00;63355.56;5099940;28;20048;-82
2024/02/10 03:01:51;;;;;;;5.43;2.88;;;;;;;-141.50;100.00;63355.56;5117329;28;20062;-82
2024/02/10 03:04:21;;;;;;;4.93;2.83;;;;;;;-141.50;100.00;63355.56;5095507;28;20047;-81
2024/02/10 03:06:50;;;;;;;6.47;2.75;;;;;;;-141.50;100.00;63355.56;5098930;28;20048;-83
2024/02/10 03:09:17;;;;;;;3.67;2.42;;;;;;;-141.50;100.00;63355.56;5113372;28;20058;-82
2024/02/10 03:11:44;;;;;;;4.70;2.72;;;;;;;-141.50;100.00;63355.56;5095967;28;20051;-82
2024/02/10 03:14:11;;;;;;;6.15;3.00;;;;;;;-141.50;100.00;63355.56;5106576;28;20055;-80
2024/02/10 03:16:38;;;;;;;6.88;2.83;;;;;;;-141.50;100.00;63355.56;5111906;28;20108;-80
2024/02/10 03:19:06;;;;;;;4.82;2.90;;;;;;;-141.50;100.00;63355.56;5074660;28;20055;-81
2024/02/10 03:21:35;;;;;;;5.65;3.28;;;;;;;-141.50;100.00;63355.56;5111794;28;20067;-81
2024/02/10 03:24:03;;;;;;;7.82;3.10;;;;;;;-141.50;100.00;63355.56;5112981;28;20333;-81
2024/02/10 03:26:32;;;;;;;4.88;3.00;;;;;;;-141.50;100.00;63355.56;5093778;28;20040;-80
2024/02/10 03:29:02;;;;;;;6.38;3.33;;;;;;;-141.50;100.00;63355.56;5115588;28;20043;-81
2024/02/10 03:31:29;;;;;;;7.90;3.92;;;;;;;-141.50;100.00;63355.56;5093468;28;20054;-81
2024/02/10 03:33:56;;;;;;;9.15;3.80;;;;;;;-141.50;100.00;63355.56;5091094;28;20126;-80
2024/02/10 03:36:27;;;;;;;8.40;3.70;;;;;;;-141.50;100.00;63355.56;5094624;28;20105;-81
2024/02/10 03:38:54;;;;;;;6.28;3.25;;;;;;;-141.50;100.00;63355.56;5110653;28;20101;-82
2024/02/10 03:41:22;;;;;;;5.50;3.35;;;;;;;-141.50;100.00;63355.56;5093627;28;20755;-82
2024/02/10 03:43:48;;;;;;;6.35;2.97;;;;;;;-141.50;100.00;63355.56;5093947;28;20067;-82
2024/02/10 03:46:17;;;;;;;6.82;3.35;;;;;;;-141.50;100.00;63355.56;5092647;28;20097;-82
2024/02/10 03:48:45;;;;;;;5.45;3.60;;;;;;;-141.50;100.00;63355.56;5082048;27;20059;-81
2024/02/10 03:51:12;;;;;;;6.25;3.25;;;;;;;-141.50;100.00;63355.56;5110115;28;20062;-81
2024/02/10 03:53:39;;;;;;;4.20;2.47;;;;;;;-141.50;100.00;63355.56;5091918;28;20213;-80
2024/02/10 03:56:11;;;;;;;4.28;2.45;;;;;;;-141.50;100.00;63355.56;5091161;28;20055;-81
2024/02/10 03:58:43;;;;;;;5.75;2.45;;;;;;;-141.50;100.00;63355.56;5090079;28;20059;-80
2024/02/10 04:01:14;;;;;;;5.63;3.08;;;;;;;-141.50;100.00;63355.56;5107057;28;20059;-80
2024/02/10 04:03:44;;;;;;;5.78;2.67;;;;;;;-141.50;100.00;63355.56;5109955;28;20055;-80
2024/02/10 04:06:15;;;;;;;5.43;3.10;;;;;;;-141.50;100.00;63355.56;5086714;28;20437;-82
2024/02/10 04:08:46;;;;;;;5.55;3.38;;;;;;;-141.50;100.00;63355.56;5091019;28;20062;-82
2024/02/10 04:11:16;;;;;;;9.02;3.90;;;;;;;-141.50;100.00;63355.56;5108620;28;20084;-81
2024/02/10 04:13:44;;;;;;;7.43;3.90;;;;;;;-141.50;100.00;63355.56;5088565;28;20079;-82
2024/02/10 04:16:12;;;;;;;7.30;4.07;;;;;;;-141.50;100.00;63355.56;5109885;28;20074;-81
2024/02/10 04:18:40;;;;;;;7.15;3.95;;;;;;;-141.50;100.00;63355.56;5075132;28;20060;-80
2024/02/10 04:21:09;;;;;;;6.35;3.60;;;;;;;-141.50;100.00;63355.56;5110417;28;20506;-82
2024/02/10 04:23:39;;;;;;;6.85;3.70;;;;;;;-141.50;100.00;63355.56;5097827;28;20115;-81
2024/02/10 04:26:07;;;;;;;4.60;3.17;;;;;;;-141.50;100.00;63355.56;5118220;28;20216;-81
2024/02/10 04:28:34;;;;;;;5.15;3.30;;;;;;;-141.50;100.00;63355.56;5117328;28;20039;-82
2024/02/10 04:31:05;;;;;;;6.50;3.70;;;;;;;-141.50;100.00;63355.56;5079769;28;20074;-82
2024/02/10 04:33:31;;;;;;;5.32;3.33;;;;;;;-141.50;100.00;63355.56;5115763;28;20047;-82
2024/02/10 04:35:58;;;;;;;5.70;3.50;;;;;;;-141.50;100.00;63355.56;5113311;28;20060;-83
2024/02/10 04:38:25;;;;;;;8.02;3.55;;;;;;;-141.50;100.00;63355.56;5113340;28;20051;-82
2024/02/10 04:40:52;;;;;;;5.10;3.47;;;;;;;-141.50;100.00;63355.56;5097696;28;20080;-82
2024/02/10 04:43:19;;;;;;;8.88;3.90;;;;;;;-141.50;100.00;63355.56;5114486;28;20119;-83
2024/02/10 04:45:48;;;;;;;5.43;3.53;;;;;;;-141.50;100.00;63355.56;5097036;28;20051;-81
2024/02/10 04:48:18;;;;;;;7.30;3.40;;;;;;;-141.50;100.00;63355.56;5111853;28;20076;-81
2024/02/10 04:50:45;;;;;;;6.78;3.60;;;;;;;-141.50;100.00;63355.56;5109018;28;20090;-81
2024/02/10 04:53:15;;;;;;;9.35;3.63;;;;;;;-141.50;100.00;63355.56;5109186;28;20051;-81
2024/02/10 04:55:42;;;;;;;7.60;3.58;;;;;;;-141.50;100.00;63355.56;5091382;28;20046;-81
2024/02/10 04:58:12;;;;;;;10.93;3.40;;;;;;;-141.50;100.00;63355.56;5097874;28;20127;-82
2024/02/10 05:00:39;;;;;;;5.13;3.22;;;;;;;-141.50;100.00;63355.56;5115331;28;20040;-83
2024/02/10 05:03:05;;;;;;;6.93;3.53;;;;;;;-141.50;100.00;63355.56;5097322;28;20568;-81
2024/02/10 05:05:32;;;;;;;8.50;3.25;;;;;;;-141.50;100.00;63355.56;5114017;28;20131;-82
2024/02/10 05:07:59;;;;;;;7.68;3.58;;;;;;;-141.50;100.00;63355.56;5109889;28;20055;-80
2024/02/10 05:10:26;;;;;;;7.18;2.85;;;;;;;-141.50;100.00;63355.56;5110128;28;20497;-80
2024/02/10 05:12:56;;;;;;;5.50;3.30;;;;;;;-141.50;100.00;63355.56;5115072;28;20062;-80
2024/02/10 05:15:25;;;;;;;9.68;3.10;;;;;;;-141.50;100.00;63355.56;5108624;28;20059;-82
2024/02/10 05:17:53;;;;;;;9.30;3.38;;;;;;;-141.50;100.00;63355.56;5115333;28;20115;-80
2024/02/10 05:20:24;;;;;;;6.43;2.55;;;;;;;-141.50;100.00;63355.56;5110035;28;20116;-80
2024/02/10 05:22:53;;;;;;;5.72;2.83;;;;;;;-141.50;100.00;63355.56;5108235;28;20051;-80
2024/02/10 05:25:21;;;;;;;5.40;3.35;;;;;;;-141.50;100.00;63355.56;5109269;28;20134;-81
2024/02/10 05:27:49;;;;;;;5.75;3.42;;;;;;;-141.50;100.00;63355.56;5092186;28;20052;-82
2024/02/10 05:30:21;;;;;;;6.18;3.03;;;;;;;-141.50;100.00;63355.56;5092818;28;20556;-81
2024/02/10 05:32:49;;;;;;;6.65;3.13;;;;;;;-141.50;100.00;63355.56;5090270;28;20138;-81
2024/02/10 05:35:18;;;;;;;8.65;2.78;;;;;;;-141.50;100.00;63355.56;5096394;28;20119;-82
2024/02/10 05:37:50;;;;;;;5.72;2.50;;;;;;;-141.50;100.00;63355.56;5096897;28;20072;-82
2024/02/10 05:40:17;;;;;;;10.90;2.30;;;;;;;-141.50;100.00;63355.56;5115280;28;20140;-81
2024/02/10 05:42:46;;;;;;;7.10;2.10;;;;;;;-141.50;100.00;63355.56;5111352;28;20044;-81
2024/02/10 05:45:17;;;;;;;5.55;2.42;;;;;;;-141.50;100.00;63355.56;5072691;28;20109;-81
2024/02/10 05:47:47;;;;;;;8.10;2.65;;;;;;;-141.50;100.00;63355.56;5092002;28;20517;-83
2024/02/10 05:50:18;;;;;;;4.95;2.03;;;;;;;-141.50;100.00;63355.56;5108275;28;20074;-81
2024/02/10 05:52:45;;;;;;;4.45;2.10;;;;;;;-141.50;100.00;63355.56;5096703;28;20521;-81
2024/02/10 05:55:14;;;;;;;3.45;1.90;;;;;;;-141.50;100.00;63355.56;5089832;28;20051;-81
2024/02/10 05:57:42;;;;;;;11.85;2.28;;;;;;;-141.50;100.00;63355.56;5091070;28;20042;-81
2024/02/10 06:00:12;;;;;;;4.32;2.67;;;;;;;-141.50;100.00;63355.56;5089281;28;20059;-81
2024/02/10 06:02:41;;;;;;;4.65;2.45;;;;;;;-141.50;100.00;63355.56;5085611;28;20039;-83
2024/02/10 06:05:09;;;;;;;4.40;2.50;;;;;;;-141.50;100.00;63355.56;5105751;28;20506;-81
2024/02/10 06:07:37;;;;;;;5.40;2.70;;;;;;;-141.50;100.00;63355.56;5108990;28;20043;-81
2024/02/10 06:10:07;;;;;;;7.00;2.78;;;;;;;-141.50;100.00;63355.56;5111632;28;20066;-81
2024/02/10 06:12:34;;;;;;;6.45;2.85;;;;;;;-141.50;100.00;63355.56;5113360;28;20109;-81
2024/02/10 06:15:01;;;;;;;4.53;2.45;;;;;;;-141.50;100.00;63355.56;5090065;28;20086;-81
2024/02/10 06:17:28;;;;;;;4.72;2.38;;;;;;;-141.50;100.00;63355.56;5091233;28;20036;-80
2024/02/10 06:19:55;;;;;;;6.00;2.63;;;;;;;-141.50;100.00;63355.56;5105586;28;20142;-80
2024/02/10 06:22:22;;;;;;;6.05;2.53;;;;;;;-141.50;100.00;63355.56;5107890;28;20127;-81
2024/02/10 06:24:49;;;;;;;3.72;2.17;;;;;;;-141.50;100.00;63355.56;5104370;28;20051;-80
2024/02/10 06:27:16;;;;;;;4.75;2.17;;;;;;;-141.50;100.00;63355.56;5106843;28;20051;-80
2024/02/10 06:29:45;;;;;;;5.95;2.92;;;;;;;-141.50;100.00;63355.56;5105107;28;20039;-81
2024/02/10 06:32:12;;;;;;;9.15;2.95;;;;;;;-141.50;100.00;63355.56;5106598;28;20066;-83
2024/02/10 06:34:41;;;;;;;6.30;2.65;;;;;;;-141.50;100.00;63355.56;5111548;28;20093;-83
2024/02/10 06:37:08;;;;;;;5.82;2.75;;;;;;;-141.50;100.00;63355.56;5093582;28;20413;-82
2024/02/10 06:39:35;;;;;;;7.35;2.50;;;;;;;-141.50;100.00;63355.56;5114218;28;20050;-80
2024/02/10 06:42:02;;;;;;;5.05;2.63;;;;;;;-141.50;100.00;63355.56;5097935;28;20066;-83
2024/02/10 06:44:29;;;;;;;15.35;4.45;;;;;;;-141.50;100.00;63355.56;5095324;28;20088;-80
2024/02/10 06:46:55;;;;;;;97.07;16.77;;;;;;;-141.50;100.00;63355.56;5110900;28;20055;-81
2024/02/10 06:49:24;;;;;;;276.42;42.17;;;;;;;-141.50;100.00;63355.56;5109947;28;20051;-83
2024/02/10 06:51:50;;;;;;;186.32;33.30;;;;;;;-141.50;100.00;63355.56;5089851;28;20039;-83
2024/02/10 06:54:17;;;;;;;73.97;14.02;;;;;;;-141.50;100.00;63355.56;5105028;28;20105;-83
2024/02/10 06:56:44;;;;;;;24.15;6.85;;;;;;;-141.50;100.00;63355.56;5109422;28;20050;-81
2024/02/10 06:59:11;;;;;;;12.70;4.13;;;;;;;-141.50;100.00;63355.56;5086786;28;20090;-81
2024/02/10 07:01:37;;;;;;;11.85;4.07;;;;;;;-141.50;100.00;63355.56;5087550;28;20044;-81
2024/02/10 07:04:05;;;;;;;106.43;19.75;;;;;;;-141.50;100.00;63355.56;5087071;28;20078;-80
2024/02/10 07:06:33;;;;;;;97.63;21.20;;;;;;;-141.50;100.00;63355.56;5105508;28;20451;-79
2024/02/10 07:09:03;;;;;;;126.63;24.20;;;;;;;-141.50;100.00;63355.56;5091091;28;20047;-78
2024/02/10 07:11:31;;;;;;;223.63;50.83;;;;;;;-141.50;100.00;63355.56;5087754;28;20051;-79
2024/02/10 07:14:08;;;;;;;189.50;46.17;;;;;;;-141.50;100.00;63355.56;5090319;28;20055;-81
2024/02/10 07:16:34;;;;;;;85.35;24.85;;;;;;;-141.50;100.00;63355.56;5087640;28;20054;-79
2024/02/10 07:19:01;;;;;;;48.95;16.75;;;;;;;-141.50;100.00;63355.56;5106893;28;20055;-78
2024/02/10 07:21:28;;;;;;;43.90;12.52;;;;;;;-141.50;100.00;63355.56;5089391;28;20068;-78
2024/02/10 07:23:55;;;;;;;19.15;7.53;;;;;;;-141.50;100.00;63355.56;5108305;28;20072;-80
2024/02/10 07:26:21;;;;;;;16.48;7.75;;;;;;;-141.50;100.00;63355.56;5090920;28;20063;-80
2024/02/10 07:28:53;;;;;;;25.70;12.25;;;;;;;-141.50;100.00;63355.56;5095891;28;20124;-79
2024/02/10 07:31:21;;;;;;;45.17;18.63;;;;;;;-141.50;100.00;63355.56;5089135;28;20081;-80
2024/02/10 07:33:48;;;;;;;43.70;18.90;;;;;;;-141.50;100.00;63355.56;5106878;28;20047;-81
2024/02/10 07:36:18;;;;;;;50.53;20.08;;;;;;;-141.50;100.00;63355.56;5091977;28;20085;-79
2024/02/10 07:38:45;;;;;;;46.42;16.08;;;;;;;-141.50;100.00;63355.56;5085569;28;20181;-81
2024/02/10 07:41:12;;;;;;;39.97;14.95;;;;;;;-141.50;100.00;63355.56;5070030;28;20121;-79
2024/02/10 07:43:38;;;;;;;30.90;11.75;;;;;;;-141.50;100.00;63355.56;5088470;28;20043;-80
2024/02/10 07:46:05;;;;;;;34.28;11.15;;;;;;;-141.50;100.00;63355.56;5107696;28;20565;-80
2024/02/10 07:48:37;;;;;;;28.92;11.07;;;;;;;-141.50;100.00;63355.56;5108984;28;20058;-80
2024/02/10 07:51:06;;;;;;;32.03;12.38;;;;;;;-141.50;100.00;63355.56;5104009;28;20078;-79
2024/02/10 07:53:32;;;;;;;30.08;11.43;;;;;;;-141.50;100.00;63355.56;5107169;28;20147;-81
2024/02/10 07:56:01;;;;;;;30.13;11.50;;;;;;;-141.50;100.00;63355.56;5106399;28;20043;-80
2024/02/10 07:58:29;;;;;;;30.92;12.63;;;;;;;-141.50;100.00;63355.56;5107034;28;20044;-81
2024/02/10 08:00:56;;;;;;;30.60;12.52;;;;;;;-141.50;100.00;63355.56;5108082;28;20143;-81
2024/02/10 08:03:23;;;;;;;35.03;14.45;;;;;;;-141.50;100.00;63355.56;5091427;28;20063;-79
2024/02/10 08:05:51;;;;;;;31.52;13.70;;;;;;;-141.50;100.00;63355.56;5107259;28;20082;-80
2024/02/10 08:08:21;;;;;;;23.50;11.48;;;;;;;-141.50;100.00;63355.56;5106921;28;20538;-79
2024/02/10 08:10:48;;;;;;;21.65;9.82;;;;;;;-141.50;100.00;63355.56;5109186;28;20044;-79
2024/02/10 08:13:14;;;;;;;13.63;6.85;;;;;;;-141.50;100.00;63355.56;5093096;28;20140;-80
2024/02/10 08:15:41;;;;;;;12.57;4.57;;;;;;;-141.50;100.00;63355.56;5111643;28;20047;-80
2024/02/10 08:18:10;;;;;;;10.40;4.93;;;;;;;-141.50;100.00;63355.56;5085018;28;20063;-83
2024/02/10 08:20:40;;;;;;;14.57;6.70;;;;;;;-141.50;100.00;63355.56;5094693;28;20052;-81
2024/02/10 08:23:11;;;;;;;14.52;6.15;;;;;;;-141.50;100.00;63355.56;5090753;28;20075;-80
2024/02/10 08:25:42;;;;;;;6.38;3.28;;;;;;;-141.50;100.00;63355.56;5115600;28;20062;-81
2024/02/10 08:28:09;;;;;;;10.02;3.25;;;;;;;-141.50;100.00;63355.56;5111865;28;20063;-79
2024/02/10 08:30:35;;;;;;;5.53;2.55;;;;;;;-141.50;100.00;63355.56;5112274;28;20040;-81
2024/02/10 08:33:02;;;;;;;5.93;2.80;;;;;;;-141.50;100.00;63355.56;5113514;28;20051;-80
2024/02/10 08:35:30;;;;;;;5.97;3.05;;;;;;;-141.50;100.00;63355.56;5108290;28;20532;-80
2024/02/10 08:37:57;;;;;;;5.80;2.67;;;;;;;-141.50;100.00;63355.56;5086844;28;20127;-80
2024/02/10 08:40:24;;;;;;;6.10;2.40;;;;;;;-141.50;100.00;63355.56;5090486;28;20047;-81
2024/02/10 08:42:54;;;;;;;4.60;2.35;;;;;;;-141.50;100.00;63355.56;5107472;27;20155;-79
2024/02/10 08:45:20;;;;;;;5.25;2.65;;;;;;;-141.50;100.00;63355.56;5088418;28;20067;-81
2024/02/10 08:47:48;;;;;;;9.48;3.22;;;;;;;-141.50;100.00;63355.56;5112710;28;20562;-81
2024/02/10 08:50:15;;;;;;;6.53;2.90;;;;;;;-141.50;100.00;63355.56;5081091;28;20062;-79
2024/02/10 08:52:47;;;;;;;5.32;2.63;;;;;;;-141.50;100.00;63355.56;5107927;28;20051;-81
2024/02/10 08:55:15;;;;;;;5.90;2.97;;;;;;;-141.50;100.00;63355.56;5108179;28;20051;-81
2024/02/10 08:57:43;;;;;;;5.72;2.50;;;;;;;-141.50;100.00;63355.56;5109383;28;20144;-80
2024/02/10 09:00:11;;;;;;;7.70;2.97;;;;;;;-141.50;100.00;63355.56;5089264;28;20043;-79
2024/02/10 09:02:38;;;;;;;6.93;3.10;;;;;;;-141.50;100.00;63355.56;5108729;28;20054;-81
2024/02/10 09:05:06;;;;;;;6.95;2.72;;;;;;;-141.50;100.00;63355.56;5085117;28;20071;-80
2024/02/10 09:07:33;;;;;;;5.22;2.85;;;;;;;-141.50;100.00;63355.56;5109524;27;20040;-79
2024/02/10 09:10:00;;;;;;;5.38;2.67;;;;;;;-141.50;100.00;63355.56;5108628;28;20122;-81
2024/02/10 09:12:28;;;;;;;5.88;2.65;;;;;;;-141.50;100.00;63355.56;5106895;28;20050;-80
2024/02/10 09:14:55;;;;;;;7.50;3.20;;;;;;;-141.50;100.00;63355.56;5100885;28;20490;-79
2024/02/10 09:17:23;;;;;;;7.47;2.80;;;;;;;-141.50;100.00;63355.56;5106060;28;20694;-80
2024/02/10 09:19:50;;;;;;;4.80;2.58;;;;;;;-141.50;100.00;63355.56;5106461;28;20104;-80
2024/02/10 09:22:17;;;;;;;6.20;2.60;;;;;;;-141.50;100.00;63355.56;5101159;28;20055;-81
2024/02/10 09:24:44;;;;;;;5.88;2.97;;;;;;;-141.50;100.00;63355.56;5087549;28;20054;-81
2024/02/10 09:27:10;;;;;;;4.85;2.67;;;;;;;-141.50;100.00;63355.56;5105688;28;20081;-81
2024/02/10 09:29:38;;;;;;;5.88;2.95;;;;;;;-141.50;100.00;63355.56;5087906;28;20075;-80
2024/02/10 09:32:05;;;;;;;5.72;2.90;;;;;;;-141.50;100.00;63355.56;5106381;28;20044;-80
2024/02/10 09:34:32;;;;;;;6.13;3.25;;;;;;;-141.50;100.00;63355.56;5084053;28;20135;-80
2024/02/10 09:36:59;;;;;;;7.72;3.05;;;;;;;-141.50;100.00;63355.56;5102571;28;20051;-80
2024/02/10 09:39:28;;;;;;;7.28;2.95;;;;;;;-141.50;100.00;63355.56;5102198;28;20112;-81
2024/02/10 09:42:00;;;;;;;5.68;3.05;;;;;;;-141.50;100.00;63355.56;5079341;28;20272;-78
2024/02/10 09:44:33;;;;;;;4.50;2.58;;;;;;;-141.50;100.00;63355.56;5097549;28;20063;-80
2024/02/10 09:47:01;;;;;;;5.63;2.53;;;;;;;-141.50;100.00;63355.56;5106235;28;20044;-80
2024/02/10 09:49:29;;;;;;;6.25;3.08;;;;;;;-141.50;100.00;63355.56;5104705;28;20096;-80
2024/02/10 09:51:58;;;;;;;6.45;2.50;;;;;;;-141.50;100.00;63355.56;5102766;28;20044;-78
2024/02/10 09:54:26;;;;;;;6.28;2.72;;;;;;;-141.50;100.00;63355.56;5104119;28;20044;-78
2024/02/10 09:56:56;;;;;;;5.20;2.40;;;;;;;-141.50;100.00;63355.56;5105407;28;20687;-77
2024/02/10 09:59:24;;;;;;;7.88;2.53;;;;;;;-141.50;100.00;63355.56;5102773;28;20121;-78
2024/02/10 10:01:59;;;;;;;5.20;2.58;;;;;;;-141.50;100.00;63355.56;5086237;28;20063;-78
2024/02/10 10:04:26;;;;;;;6.25;2.70;;;;;;;-141.50;100.00;63355.56;5102636;28;20048;-79
2024/02/10 10:06:53;;;;;;;4.50;2.15;;;;;;;-141.50;100.00;63355.56;5098684;28;20044;-77
2024/02/10 10:09:20;;;;;;;5.80;2.00;;;;;;;-141.50;100.00;63355.56;5086689;28;20630;-81
2024/02/10 10:11:50;;;;;;;3.50;1.85;;;;;;;-141.50;100.00;63355.56;5089261;28;20040;-79
2024/02/10 10:14:19;;;;;;;4.25;2.13;;;;;;;-141.50;100.00;63355.56;5087961;28;20044;-82
2024/02/10 10:17:00;;;;;;;6.65;2.10;;;;;;;-141.50;100.00;63355.56;5092740;28;20058;-79
2024/02/10 10:19:27;;;;;;;3.42;2.00;;;;;;;-141.50;100.00;63355.56;5110530;28;20639;-80
2024/02/10 10:21:56;;;;;;;6.28;1.92;;;;;;;-141.50;100.00;63355.56;5108749;28;20066;-84
2024/02/10 10:24:27;;;;;;;4.75;2.08;;;;;;;-141.50;100.00;63355.56;5092045;28;20526;-88
2024/02/10 10:26:56;;;;;;;4.05;1.90;;;;;;;-141.50;100.00;63355.56;5104833;28;20047;-79
2024/02/10 10:29:23;;;;;;;4.00;2.08;;;;;;;-141.50;100.00;63355.56;5089567;28;20066;-81
2024/02/10 10:31:53;;;;;;;4.82;2.08;;;;;;;-141.50;100.00;63355.56;5108157;28;20112;-78
2024/02/10 10:34:20;;;;;;;3.05;1.80;;;;;;;-141.50;100.00;63355.56;5082029;28;20051;-78
2024/02/10 10:36:49;;;;;;;5.47;2.08;;;;;;;-141.50;100.00;63355.56;5092582;28;20107;-78
2024/02/10 10:39:17;;;;;;;6.47;2.78;;;;;;;-141.50;100.00;63355.56;5110390;28;20047;-78
2024/02/10 10:41:46;;;;;;;5.55;2.33;;;;;;;-141.50;100.00;63355.56;5092077;28;20043;-81
2024/02/10 10:44:17;;;;;;;5.00;2.10;;;;;;;-141.50;100.00;63355.56;5107650;28;20078;-81
2024/02/10 10:46:45;;;;;;;4.85;2.50;;;;;;;-141.50;100.00;63355.56;5104504;28;20047;-79
2024/02/10 10:49:12;;;;;;;7.82;3.22;;;;;;;-141.50;100.00;63355.56;5083811;28;20043;-79
2024/02/10 10:52:01;;;;;;;6.22;2.60;;;;;;;-141.50;100.00;63355.56;5088739;28;20051;-79
2024/02/10 10:54:38;;;;;;;6.80;2.75;;;;;;;-141.50;100.00;63355.56;5085269;28;20047;-81
2024/02/10 10:57:15;;;;;;;6.80;2.95;;;;;;;-141.50;100.00;63355.56;5068427;28;20067;-79
2024/02/10 10:59:47;;;;;;;5.85;2.58;;;;;;;-141.50;100.00;63355.56;5107266;28;20563;-79
2024/02/10 11:02:14;;;;;;;5.57;2.38;;;;;;;-141.50;100.00;63355.56;5074941;28;20109;-78
2024/02/10 11:05:26;;;;;;;4.18;2.42;;;;;;;-141.50;100.00;63355.56;5087100;28;20043;-78
2024/02/10 11:08:02;;;;;;;4.82;2.70;;;;;;;-141.50;100.00;63355.56;5015147;28;20067;-78
2024/02/10 11:10:48;;;;;;;6.28;2.92;;;;;;;-141.50;100.00;63355.56;5102171;28;20643;-78
2024/02/10 11:13:22;;;;;;;13.48;5.35;;;;;;;-141.50;100.00;63355.56;5103963;28;20064;-78